XASGN MMAN-MMTO
Flight info
| Callsign | XASGN |
|---|---|
| Flight time | N/A |
| Altitude | 38000 |
| Route | ADN DCT MTY UJ81 KERGA DCT AVURI UQ101 ITLAS ITLAS2A |
| Aircraft | B737/M-SDE2E3FGHIRWXY/LB1 |
Departure
| Time | N/A |
|---|---|
| Airport | Del Norte International Airport (MMAN) |
Arrival
| Time | 2026-05-08 03:05 |
|---|---|
| Airport | Adolfo López Mateos International Airport (MMTO) |
| Time | Latitude | Longitude | Altitude | Speed | Heading |
|---|---|---|---|---|---|
| 2026-05-08 02:14 | 23.31007 | -100.10837 | 37919 ft | 425 kts | 186° |
| 2026-05-08 02:15 | 23.25107 | -100.11020 | 37922 ft | 423 kts | 186° |
| 2026-05-08 02:15 | 23.19223 | -100.11213 | 37939 ft | 422 kts | 186° |
| 2026-05-08 02:16 | 23.14345 | -100.11371 | 37912 ft | 422 kts | 186° |
| 2026-05-08 02:16 | 23.08458 | -100.11560 | 37902 ft | 421 kts | 186° |
| 2026-05-08 02:17 | 23.02600 | -100.11748 | 37917 ft | 419 kts | 186° |
| 2026-05-08 02:17 | 22.96791 | -100.11936 | 37908 ft | 420 kts | 186° |
| 2026-05-08 02:18 | 22.90914 | -100.12125 | 37919 ft | 421 kts | 186° |
| 2026-05-08 02:18 | 22.85043 | -100.12314 | 37913 ft | 422 kts | 186° |
| 2026-05-08 02:19 | 22.79165 | -100.12503 | 37912 ft | 424 kts | 186° |
| 2026-05-08 02:19 | 22.73264 | -100.12693 | 37910 ft | 425 kts | 186° |
| 2026-05-08 02:20 | 22.67316 | -100.12883 | 37901 ft | 426 kts | 186° |
| 2026-05-08 02:20 | 22.61386 | -100.13073 | 37905 ft | 427 kts | 186° |
| 2026-05-08 02:21 | 22.55480 | -100.13262 | 37908 ft | 427 kts | 186° |
| 2026-05-08 02:21 | 22.49518 | -100.13452 | 37897 ft | 428 kts | 186° |
| 2026-05-08 02:22 | 22.43551 | -100.13643 | 37889 ft | 428 kts | 186° |
| 2026-05-08 02:22 | 22.37613 | -100.13832 | 37893 ft | 427 kts | 186° |
| 2026-05-08 02:23 | 22.25183 | -100.14228 | 37893 ft | 427 kts | 186° |
| 2026-05-08 02:24 | 22.19229 | -100.14418 | 37892 ft | 426 kts | 186° |
| 2026-05-08 02:24 | 22.13284 | -100.14607 | 37896 ft | 426 kts | 186° |
| 2026-05-08 02:25 | 22.07359 | -100.14795 | 37896 ft | 426 kts | 186° |
| 2026-05-08 02:25 | 22.01462 | -100.14982 | 37899 ft | 426 kts | 186° |
| 2026-05-08 02:26 | 21.96511 | -100.15140 | 37904 ft | 426 kts | 186° |
| 2026-05-08 02:26 | 21.90573 | -100.15328 | 37912 ft | 427 kts | 186° |
| 2026-05-08 02:27 | 21.84609 | -100.15517 | 37905 ft | 428 kts | 186° |
| 2026-05-08 02:27 | 21.78667 | -100.15705 | 37909 ft | 428 kts | 186° |
| 2026-05-08 02:28 | 21.72704 | -100.15893 | 37929 ft | 429 kts | 186° |
| 2026-05-08 02:28 | 21.66724 | -100.16081 | 37908 ft | 430 kts | 185° |
| 2026-05-08 02:29 | 21.60755 | -100.16269 | 37927 ft | 430 kts | 186° |
| 2026-05-08 02:29 | 21.54774 | -100.16457 | 37925 ft | 431 kts | 185° |
| 2026-05-08 02:30 | 21.48749 | -100.16646 | 37934 ft | 430 kts | 185° |
| 2026-05-08 02:30 | 21.42779 | -100.16834 | 37932 ft | 431 kts | 185° |
| 2026-05-08 02:31 | 21.36732 | -100.17024 | 37935 ft | 432 kts | 185° |
| 2026-05-08 02:31 | 21.30741 | -100.17211 | 37932 ft | 432 kts | 185° |
| 2026-05-08 02:32 | 21.24718 | -100.17400 | 37947 ft | 432 kts | 185° |
| 2026-05-08 02:32 | 21.18724 | -100.17587 | 37950 ft | 432 kts | 185° |
| 2026-05-08 02:33 | 21.12710 | -100.17775 | 37943 ft | 432 kts | 185° |
| 2026-05-08 02:33 | 21.06723 | -100.17962 | 37946 ft | 431 kts | 185° |
| 2026-05-08 02:34 | 21.00688 | -100.18150 | 37945 ft | 431 kts | 185° |
| 2026-05-08 02:34 | 20.94713 | -100.18337 | 37968 ft | 431 kts | 185° |
| 2026-05-08 02:35 | 20.88684 | -100.18525 | 37710 ft | 436 kts | 185° |
| 2026-05-08 02:35 | 20.85640 | -100.18621 | 37211 ft | 437 kts | 185° |
| 2026-05-08 02:35 | 20.82627 | -100.18715 | 36599 ft | 436 kts | 185° |
| 2026-05-08 02:36 | 20.79555 | -100.18810 | 36020 ft | 435 kts | 185° |
| 2026-05-08 02:36 | 20.76568 | -100.18902 | 35583 ft | 431 kts | 185° |
| 2026-05-08 02:36 | 20.73578 | -100.18994 | 35127 ft | 428 kts | 185° |
| 2026-05-08 02:36 | 20.70610 | -100.19086 | 34651 ft | 425 kts | 184° |
| 2026-05-08 02:37 | 20.67663 | -100.19178 | 34164 ft | 423 kts | 184° |
| 2026-05-08 02:37 | 20.64731 | -100.19269 | 33639 ft | 420 kts | 184° |
| 2026-05-08 02:37 | 20.61794 | -100.19177 | 33135 ft | 419 kts | 176° |
| 2026-05-08 02:37 | 20.58914 | -100.18623 | 32661 ft | 419 kts | 168° |
| 2026-05-08 02:38 | 20.56119 | -100.17795 | 32214 ft | 416 kts | 167° |
| 2026-05-08 02:38 | 20.53367 | -100.16953 | 31766 ft | 413 kts | 167° |
| 2026-05-08 02:38 | 20.50580 | -100.16098 | 31281 ft | 410 kts | 167° |
| 2026-05-08 02:38 | 20.47881 | -100.15277 | 30804 ft | 408 kts | 167° |
| 2026-05-08 02:39 | 20.45122 | -100.14447 | 30313 ft | 406 kts | 167° |
| 2026-05-08 02:39 | 20.42447 | -100.13649 | 29786 ft | 404 kts | 167° |
| 2026-05-08 02:39 | 20.39693 | -100.12832 | 29253 ft | 401 kts | 167° |
| 2026-05-08 02:39 | 20.37034 | -100.12045 | 28745 ft | 398 kts | 167° |
| 2026-05-08 02:40 | 20.34373 | -100.11259 | 28242 ft | 396 kts | 167° |
| 2026-05-08 02:40 | 20.31750 | -100.10484 | 27755 ft | 393 kts | 166° |
| 2026-05-08 02:40 | 20.29117 | -100.09706 | 27269 ft | 390 kts | 166° |
| 2026-05-08 02:40 | 20.26485 | -100.08929 | 26789 ft | 388 kts | 166° |
| 2026-05-08 02:41 | 20.23900 | -100.08167 | 26337 ft | 386 kts | 166° |
| 2026-05-08 02:41 | 20.21302 | -100.07400 | 25884 ft | 383 kts | 166° |
| 2026-05-08 02:41 | 20.18752 | -100.06648 | 25434 ft | 382 kts | 166° |
| 2026-05-08 02:41 | 20.16198 | -100.05895 | 24981 ft | 380 kts | 166° |
| 2026-05-08 02:42 | 20.13661 | -100.05147 | 24519 ft | 379 kts | 166° |
| 2026-05-08 02:42 | 20.11095 | -100.04391 | 24070 ft | 378 kts | 166° |
| 2026-05-08 02:42 | 20.08567 | -100.03646 | 23594 ft | 377 kts | 166° |
| 2026-05-08 02:42 | 20.06065 | -100.02909 | 23071 ft | 376 kts | 166° |
| 2026-05-08 02:43 | 20.03533 | -100.02136 | 22655 ft | 372 kts | 162° |
| 2026-05-08 02:43 | 20.01184 | -100.01097 | 22425 ft | 362 kts | 158° |
| 2026-05-08 02:43 | 19.98931 | -99.99994 | 22168 ft | 354 kts | 157° |
| 2026-05-08 02:43 | 19.96715 | -99.98889 | 21912 ft | 351 kts | 157° |
| 2026-05-08 02:44 | 19.94496 | -99.97787 | 21668 ft | 348 kts | 157° |
| 2026-05-08 02:44 | 19.92308 | -99.96708 | 21426 ft | 346 kts | 157° |
| 2026-05-08 02:44 | 19.90139 | -99.95647 | 21184 ft | 344 kts | 157° |
| 2026-05-08 02:44 | 19.87973 | -99.94593 | 20950 ft | 342 kts | 157° |
| 2026-05-08 02:45 | 19.85810 | -99.93544 | 20720 ft | 344 kts | 157° |
| 2026-05-08 02:45 | 19.83595 | -99.92472 | 20477 ft | 347 kts | 157° |
| 2026-05-08 02:45 | 19.81400 | -99.91411 | 20256 ft | 349 kts | 157° |
| 2026-05-08 02:45 | 19.79193 | -99.90345 | 20023 ft | 348 kts | 157° |
| 2026-05-08 02:46 | 19.76994 | -99.89282 | 19791 ft | 347 kts | 157° |
| 2026-05-08 02:46 | 19.74793 | -99.88219 | 19559 ft | 346 kts | 157° |
| 2026-05-08 02:46 | 19.72604 | -99.87163 | 19338 ft | 346 kts | 157° |
| 2026-05-08 02:46 | 19.70397 | -99.86098 | 19116 ft | 345 kts | 157° |
| 2026-05-08 02:47 | 19.68220 | -99.85047 | 18888 ft | 344 kts | 157° |
| 2026-05-08 02:47 | 19.66040 | -99.83996 | 18672 ft | 343 kts | 157° |
| 2026-05-08 02:47 | 19.63859 | -99.82945 | 18443 ft | 343 kts | 157° |
| 2026-05-08 02:47 | 19.61705 | -99.81906 | 18202 ft | 342 kts | 157° |
| 2026-05-08 02:48 | 19.59537 | -99.80861 | 17852 ft | 339 kts | 157° |
| 2026-05-08 02:48 | 19.57414 | -99.79839 | 17431 ft | 336 kts | 157° |
| 2026-05-08 02:48 | 19.55292 | -99.78817 | 17025 ft | 334 kts | 157° |
| 2026-05-08 02:48 | 19.53162 | -99.77873 | 16757 ft | 327 kts | 162° |
| 2026-05-08 02:49 | 19.51000 | -99.77178 | 16688 ft | 320 kts | 165° |
| 2026-05-08 02:49 | 19.48864 | -99.76554 | 16602 ft | 321 kts | 166° |
| 2026-05-08 02:49 | 19.46687 | -99.75925 | 16533 ft | 327 kts | 165° |
| 2026-05-08 02:49 | 19.44480 | -99.75279 | 16451 ft | 330 kts | 165° |
| 2026-05-08 02:50 | 19.42277 | -99.74625 | 16358 ft | 328 kts | 165° |
| 2026-05-08 02:50 | 19.40078 | -99.73967 | 16269 ft | 325 kts | 165° |
| 2026-05-08 02:50 | 19.37927 | -99.73319 | 16172 ft | 318 kts | 165° |
| 2026-05-08 02:50 | 19.35828 | -99.72686 | 16073 ft | 306 kts | 165° |
| 2026-05-08 02:51 | 19.33815 | -99.72079 | 15967 ft | 295 kts | 165° |
| 2026-05-08 02:51 | 19.31875 | -99.71494 | 15937 ft | 281 kts | 164° |
| 2026-05-08 02:51 | 19.30039 | -99.70940 | 15924 ft | 268 kts | 164° |
| 2026-05-08 02:51 | 19.28257 | -99.70401 | 15930 ft | 265 kts | 164° |
| 2026-05-08 02:52 | 19.26480 | -99.69864 | 15941 ft | 266 kts | 164° |
| 2026-05-08 02:52 | 19.24713 | -99.69330 | 15936 ft | 269 kts | 164° |
| 2026-05-08 02:52 | 19.22890 | -99.68780 | 15936 ft | 271 kts | 164° |
| 2026-05-08 02:52 | 19.21070 | -99.68230 | 15921 ft | 273 kts | 164° |
| 2026-05-08 02:53 | 19.19261 | -99.67683 | 15902 ft | 274 kts | 163° |
| 2026-05-08 02:53 | 19.17419 | -99.67127 | 15883 ft | 274 kts | 163° |
| 2026-05-08 02:53 | 19.15591 | -99.66575 | 15866 ft | 273 kts | 163° |
| 2026-05-08 02:53 | 19.13755 | -99.66022 | 15843 ft | 271 kts | 163° |
| 2026-05-08 02:54 | 19.11985 | -99.65504 | 15833 ft | 256 kts | 167° |
| 2026-05-08 02:54 | 19.10301 | -99.65166 | 15785 ft | 241 kts | 169° |
| 2026-05-08 02:54 | 19.08690 | -99.64891 | 15772 ft | 225 kts | 169° |
| 2026-05-08 02:54 | 19.07180 | -99.64629 | 15751 ft | 214 kts | 169° |
| 2026-05-08 02:55 | 19.05775 | -99.64381 | 15713 ft | 195 kts | 169° |
| 2026-05-08 02:55 | 19.03280 | -99.63934 | 15706 ft | 178 kts | 168° |
| 2026-05-08 02:55 | 19.02049 | -99.63668 | 15693 ft | 186 kts | 157° |
| 2026-05-08 02:56 | 19.01123 | -99.62787 | 15661 ft | 182 kts | 115° |
| 2026-05-08 02:56 | 19.01017 | -99.61456 | 15392 ft | 187 kts | 73° |
| 2026-05-08 02:56 | 19.01492 | -99.60194 | 15213 ft | 187 kts | 71° |
| 2026-05-08 02:56 | 19.01816 | -99.59331 | 15054 ft | 186 kts | 71° |
| 2026-05-08 02:57 | 19.02285 | -99.58074 | 14832 ft | 183 kts | 71° |
| 2026-05-08 02:57 | 19.02747 | -99.56836 | 14601 ft | 182 kts | 71° |
| 2026-05-08 02:57 | 19.03209 | -99.55598 | 14380 ft | 180 kts | 71° |
| 2026-05-08 02:57 | 19.03666 | -99.54371 | 14167 ft | 178 kts | 71° |
| 2026-05-08 02:58 | 19.04123 | -99.53144 | 13947 ft | 178 kts | 71° |
| 2026-05-08 02:58 | 19.04575 | -99.51930 | 13707 ft | 180 kts | 72° |
| 2026-05-08 02:58 | 19.05062 | -99.50614 | 13738 ft | 202 kts | 71° |
| 2026-05-08 02:58 | 19.05575 | -99.49236 | 13655 ft | 196 kts | 72° |
| 2026-05-08 02:59 | 19.06090 | -99.47927 | 13328 ft | 191 kts | 64° |
| 2026-05-08 02:59 | 19.07090 | -99.46994 | 12760 ft | 199 kts | 22° |
| 2026-05-08 02:59 | 19.08449 | -99.46952 | 12269 ft | 201 kts | 349° |
| 2026-05-08 02:59 | 19.09814 | -99.47300 | 11958 ft | 192 kts | 347° |
| 2026-05-08 03:00 | 19.11087 | -99.47625 | 12000 ft | 195 kts | 347° |
| 2026-05-08 03:00 | 19.12451 | -99.47968 | 11948 ft | 205 kts | 348° |
| 2026-05-08 03:00 | 19.13845 | -99.48317 | 11729 ft | 203 kts | 347° |
| 2026-05-08 03:00 | 19.15203 | -99.48657 | 11512 ft | 199 kts | 348° |
| 2026-05-08 03:01 | 19.16537 | -99.48989 | 11322 ft | 195 kts | 348° |
| 2026-05-08 03:01 | 19.17844 | -99.49376 | 11145 ft | 196 kts | 340° |
| 2026-05-08 03:01 | 19.19094 | -99.49938 | 10965 ft | 195 kts | 337° |
| 2026-05-08 03:01 | 19.20302 | -99.50502 | 10787 ft | 186 kts | 338° |
| 2026-05-08 03:02 | 19.21454 | -99.51035 | 10566 ft | 175 kts | 338° |
| 2026-05-08 03:02 | 19.22550 | -99.51537 | 10372 ft | 168 kts | 338° |
| 2026-05-08 03:02 | 19.23624 | -99.52027 | 10230 ft | 169 kts | 339° |
| 2026-05-08 03:02 | 19.24712 | -99.52521 | 10070 ft | 171 kts | 339° |
| 2026-05-08 03:03 | 19.25807 | -99.53019 | 9816 ft | 170 kts | 339° |
| 2026-05-08 03:03 | 19.26881 | -99.53507 | 9614 ft | 168 kts | 339° |
| 2026-05-08 03:03 | 19.27944 | -99.53988 | 9431 ft | 167 kts | 338° |
| 2026-05-08 03:03 | 19.29032 | -99.54480 | 9199 ft | 169 kts | 338° |
| 2026-05-08 03:04 | 19.30106 | -99.54968 | 8936 ft | 168 kts | 338° |
| 2026-05-08 03:04 | 19.31152 | -99.55448 | 8707 ft | 160 kts | 338° |
| 2026-05-08 03:04 | 19.32168 | -99.55920 | 8479 ft | 157 kts | 341° |
| 2026-05-08 03:04 | 19.33070 | -99.56313 | 8473 ft | 114 kts | 335° |
| 2026-05-08 03:05 | 19.33645 | -99.56577 | 8470 ft | 72 kts | 337° |
| 2026-05-08 03:05 | 19.34066 | -99.56765 | 8469 ft | 57 kts | 338° |
| 2026-05-08 03:05 | 19.34275 | -99.56884 | 8466 ft | 20 kts | 277° |
| 2026-05-08 03:05 | 19.34197 | -99.56937 | 8465 ft | 12 kts | 188° |
| 2026-05-08 03:06 | 19.34113 | -99.56950 | 8471 ft | 12 kts | 188° |
| 2026-05-08 03:06 | 19.34031 | -99.56947 | 8465 ft | 12 kts | 162° |
| 2026-05-08 03:06 | 19.33954 | -99.56914 | 8468 ft | 12 kts | 158° |
| 2026-05-08 03:06 | 19.33883 | -99.56881 | 8462 ft | 11 kts | 155° |
| 2026-05-08 03:07 | 19.33812 | -99.56848 | 8471 ft | 11 kts | 157° |
| 2026-05-08 03:07 | 19.33743 | -99.56817 | 8471 ft | 11 kts | 157° |
| 2026-05-08 03:07 | 19.33677 | -99.56788 | 8464 ft | 10 kts | 157° |
| 2026-05-08 03:07 | 19.33612 | -99.56758 | 8469 ft | 10 kts | 156° |
| 2026-05-08 03:08 | 19.33548 | -99.56729 | 8468 ft | 10 kts | 156° |
| 2026-05-08 03:08 | 19.33487 | -99.56701 | 8464 ft | 9 kts | 158° |
| 2026-05-08 03:08 | 19.33428 | -99.56675 | 8472 ft | 9 kts | 155° |
| 2026-05-08 03:08 | 19.33369 | -99.56647 | 8468 ft | 9 kts | 156° |
| 2026-05-08 03:09 | 19.33312 | -99.56641 | 8468 ft | 9 kts | 202° |
| 2026-05-08 03:09 | 19.33298 | -99.56683 | 8472 ft | 6 kts | 323° |
| 2026-05-08 03:09 | 19.33319 | -99.56693 | 8472 ft | 0 kts | 336° |